KWST/WST METAR and TAF weather

Enter ICAO airport designator
Station Type Date Time Source
KWST METAR 2019/02/20 07:53 UTC NOAA

KWST 200753Z AUTO 00000KT 10SM CLR M05/M14 A3059 RMK AO2 SLP360 T10501139


Station Type Date Time Source
KWST Decoded METAR 2019/02/20 07:53 UTC NOAA

WESTERLY STATE AIRPORT, RI, United States (KWST) 41-21N 071-48W 21M
Feb 20, 2019 - 02:53 AM EST / 2019.02.20 0753 UTC
Wind: Calm:0
Visibility: 10 mile(s):0
Sky conditions: clear
Temperature: 23.0 F (-5.0 C)
Dew Point: 7.0 F (-13.9 C)
Relative Humidity: 49%
Pressure (altimeter): 30.59 in. Hg (1035 hPa)
ob: KWST 200753Z AUTO 00000KT 10SM CLR M05/M14 A3059 RMK AO2 SLP360 T10501139
cycle: 8

Station Type Date Time Source
KWST TAF UTC NOAA

Error!


Example: see airport list